createdAt,value
2018-02-14T00:01:22.118Z,1.12
2018-02-14T00:03:50.501Z,1.16
2018-02-14T00:06:19.078Z,1.11
2018-02-14T00:08:48.131Z,1.01
2018-02-14T00:11:17.095Z,1.09
2018-02-14T00:13:46.794Z,1.24
2018-02-14T00:16:15.830Z,1.17
2018-02-14T00:18:44.666Z,1.21
2018-02-14T00:21:13.570Z,1.28
2018-02-14T00:23:42.473Z,1.24
2018-02-14T00:26:10.954Z,1.23
2018-02-14T00:28:40.517Z,1.25
2018-02-14T00:31:14.684Z,1.24
2018-02-14T00:33:43.553Z,1.22
2018-02-14T00:36:12.422Z,1.29
2018-02-14T00:38:41.469Z,1.26
2018-02-14T00:41:11.282Z,1.21
2018-02-14T00:43:40.862Z,1.25
2018-02-14T00:46:09.475Z,1.19
2018-02-14T00:48:38.857Z,1.22
2018-02-14T00:51:07.749Z,1.22
2018-02-14T00:53:36.537Z,1.23
2018-02-14T00:56:06.480Z,1.18
2018-02-14T00:58:35.334Z,1.20
2018-02-14T01:01:05.652Z,1.18
2018-02-14T01:03:35.115Z,1.19
2018-02-14T01:06:04.030Z,1.13
2018-02-14T01:08:34.080Z,1.14
2018-02-14T01:11:02.462Z,1.13
2018-02-14T01:13:32.115Z,1.10
2018-02-14T01:16:01.140Z,1.08
2018-02-14T01:18:29.962Z,1.01
2018-02-14T01:20:59.446Z,0.98
2018-02-14T01:23:28.769Z,0.96
2018-02-14T01:25:58.932Z,0.99
2018-02-14T01:28:27.694Z,0.90
2018-02-14T01:30:57.480Z,0.88
2018-02-14T01:33:26.634Z,0.91
2018-02-14T01:35:55.355Z,0.95
2018-02-14T01:38:24.322Z,0.93
2018-02-14T01:40:53.703Z,0.92
2018-02-14T01:43:22.923Z,0.97
2018-02-14T01:45:51.796Z,0.87
2018-02-14T01:48:20.619Z,0.77
2018-02-14T01:50:50.681Z,0.84
2018-02-14T01:53:21.212Z,0.84
2018-02-14T01:55:50.477Z,0.85
2018-02-14T01:58:19.342Z,0.89
2018-02-14T02:00:48.983Z,0.87
2018-02-14T02:03:17.467Z,0.84
2018-02-14T02:05:46.262Z,0.85
2018-02-14T02:08:16.137Z,0.70
2018-02-14T02:10:44.858Z,0.71
2018-02-14T02:13:14.463Z,0.69
2018-02-14T02:15:43.455Z,0.74
2018-02-14T02:18:12.153Z,0.75
2018-02-14T02:20:40.840Z,0.68
2018-02-14T02:23:09.386Z,0.74
2018-02-14T02:25:38.239Z,0.71
2018-02-14T02:28:07.259Z,0.76
2018-02-14T02:30:36.926Z,0.75
2018-02-14T02:33:05.355Z,0.72
2018-02-14T02:35:34.243Z,0.71
2018-02-14T02:38:03.044Z,0.77
2018-02-14T02:40:32.574Z,0.70
2018-02-14T02:43:01.020Z,0.65
2018-02-14T02:45:30.194Z,0.64
2018-02-14T02:47:59.040Z,0.67
2018-02-14T02:50:27.820Z,0.64
2018-02-14T02:52:56.574Z,0.68
2018-02-14T02:55:25.590Z,0.62
2018-02-14T02:57:54.251Z,0.63
2018-02-14T03:00:23.319Z,0.59
2018-02-14T03:02:51.978Z,0.58
2018-02-14T03:05:20.688Z,0.65
2018-02-14T03:07:49.556Z,0.65
2018-02-14T03:10:18.278Z,0.54
2018-02-14T03:12:46.813Z,0.51
2018-02-14T03:15:15.292Z,0.62
2018-02-14T03:17:44.605Z,0.55
2018-02-14T03:20:13.550Z,0.67
2018-02-14T03:22:42.430Z,0.53
2018-02-14T03:25:11.385Z,0.57
2018-02-14T03:27:40.094Z,0.54
2018-02-14T03:30:08.811Z,0.45
2018-02-14T03:32:38.170Z,0.55
2018-02-14T03:35:07.440Z,0.53
2018-02-14T03:37:36.069Z,0.50
2018-02-14T03:40:04.998Z,0.50
2018-02-14T03:42:33.545Z,0.53
2018-02-14T03:45:02.200Z,0.55
2018-02-14T03:47:31.159Z,0.52
2018-02-14T03:50:00.096Z,0.58
2018-02-14T03:52:29.327Z,0.51
2018-02-14T03:54:59.804Z,0.56
2018-02-14T03:57:28.646Z,0.45
2018-02-14T03:59:57.391Z,0.49
2018-02-14T04:02:27.045Z,0.29
2018-02-14T04:04:55.761Z,0.38
2018-02-14T04:07:25.469Z,0.26
2018-02-14T04:09:55.701Z,0.43
2018-02-14T04:12:27.684Z,0.32
2018-02-14T04:14:56.270Z,0.39
2018-02-14T04:17:25.326Z,0.33
2018-02-14T04:19:54.446Z,0.32
2018-02-14T04:22:23.798Z,0.29
2018-02-14T04:24:52.882Z,0.33
2018-02-14T04:27:21.535Z,0.30
2018-02-14T04:29:50.097Z,0.22
2018-02-14T04:32:18.712Z,0.33
2018-02-14T04:34:47.804Z,0.32
2018-02-14T04:37:16.466Z,0.28
2018-02-14T04:39:45.632Z,0.35
2018-02-14T04:42:14.513Z,0.34
2018-02-14T04:44:43.989Z,0.43
2018-02-14T04:47:12.950Z,0.23
2018-02-14T04:49:42.656Z,0.35
2018-02-14T04:52:11.584Z,0.23
2018-02-14T04:54:40.584Z,0.21
2018-02-14T04:57:09.095Z,0.16
2018-02-14T04:59:38.706Z,0.25
2018-02-14T05:02:08.367Z,0.22
2018-02-14T05:04:36.993Z,0.17
2018-02-14T05:07:05.544Z,0.10
2018-02-14T05:09:34.566Z,0.15
2018-02-14T05:12:03.167Z,0.28
2018-02-14T05:14:31.645Z,0.17
2018-02-14T05:17:00.555Z,0.23
2018-02-14T05:19:29.755Z,0.06
2018-02-14T05:21:59.690Z,0.10
2018-02-14T05:24:28.550Z,0.10
2018-02-14T05:26:57.972Z,0.09
2018-02-14T05:29:26.864Z,0.18
2018-02-14T05:31:55.511Z,0.14
2018-02-14T05:34:24.337Z,0.04
2018-02-14T05:36:52.802Z,0.16
2018-02-14T05:39:21.805Z,0.15
2018-02-14T05:41:52.130Z,0.19
2018-02-14T05:44:21.433Z,0.15
2018-02-14T05:46:49.962Z,0.14
2018-02-14T05:49:19.693Z,-0.01
2018-02-14T05:51:49.135Z,0.04
2018-02-14T05:54:18.998Z,0.04
2018-02-14T05:56:47.957Z,0.07
2018-02-14T05:59:16.576Z,0.06
2018-02-14T06:01:45.398Z,0.10
2018-02-14T06:04:14.647Z,0.07
2018-02-14T06:06:44.209Z,0.05
2018-02-14T06:09:13.617Z,0.08
2018-02-14T06:11:42.037Z,0.08
2018-02-14T06:14:12.568Z,0.02
2018-02-14T06:16:41.350Z,0.07
2018-02-14T06:19:10.496Z,-0.04
2018-02-14T06:21:39.896Z,0.05
2018-02-14T06:24:08.456Z,0.02
2018-02-14T06:26:37.277Z,0.07
2018-02-14T06:29:06.788Z,-0.08
2018-02-14T06:31:36.362Z,-0.10
2018-02-14T06:34:05.071Z,-0.09
2018-02-14T06:36:35.242Z,-0.07
2018-02-14T06:39:04.720Z,-0.05
2018-02-14T06:41:34.365Z,-0.05
2018-02-14T06:44:04.979Z,-0.15
2018-02-14T06:46:35.083Z,-0.09
2018-02-14T06:49:04.580Z,-0.01
2018-02-14T06:51:33.345Z,-0.12
2018-02-14T06:54:02.015Z,-0.10
2018-02-14T06:56:30.956Z,-0.04
2018-02-14T06:58:59.906Z,-0.20
2018-02-14T07:01:28.783Z,-0.07
2018-02-14T07:03:58.295Z,0.12
2018-02-14T07:06:27.150Z,0.25
2018-02-14T07:08:56.242Z,0.43
2018-02-14T07:11:24.854Z,0.19
2018-02-14T07:13:54.464Z,0.20
2018-02-14T07:16:23.646Z,0.21
2018-02-14T07:18:52.554Z,-0.04
2018-02-14T07:21:22.774Z,0.06
2018-02-14T07:23:51.753Z,0.13
2018-02-14T07:26:20.796Z,0.11
2018-02-14T07:28:49.946Z,0.05
2018-02-14T07:31:18.554Z,0.02
2018-02-14T07:33:47.551Z,0.14
2018-02-14T07:36:16.416Z,0.35
2018-02-14T07:38:44.960Z,0.20
2018-02-14T07:41:15.224Z,0.14
2018-02-14T07:43:44.045Z,0.14
2018-02-14T07:46:13.221Z,0.04
2018-02-14T07:48:42.390Z,0.24
2018-02-14T07:51:11.083Z,0.29
2018-02-14T07:53:39.804Z,0.36
2018-02-14T07:56:09.380Z,0.47
2018-02-14T07:58:39.648Z,0.85
2018-02-14T08:01:09.497Z,0.81
2018-02-14T08:03:38.413Z,1.06
2018-02-14T08:06:07.376Z,1.12
2018-02-14T08:08:36.235Z,1.38
2018-02-14T08:11:05.319Z,1.08
2018-02-14T08:13:33.945Z,1.68
2018-02-14T08:16:02.962Z,1.14
2018-02-14T08:18:32.712Z,0.97
2018-02-14T08:21:02.439Z,0.92
2018-02-14T08:23:31.153Z,0.81
2018-02-14T08:26:00.418Z,0.91
2018-02-14T08:28:29.830Z,1.22
2018-02-14T08:30:59.116Z,0.99
2018-02-14T08:33:27.872Z,0.79
2018-02-14T08:35:56.394Z,0.80
2018-02-14T08:38:25.031Z,0.91
2018-02-14T08:40:54.457Z,1.96
2018-02-14T08:43:23.783Z,2.15
2018-02-14T08:45:52.635Z,1.61
2018-02-14T08:48:22.230Z,1.92
2018-02-14T08:50:51.828Z,2.10
2018-02-14T08:53:21.082Z,1.76
2018-02-14T08:55:49.949Z,1.64
2018-02-14T08:58:19.029Z,1.61
2018-02-14T09:00:48.727Z,1.54
2018-02-14T09:03:19.476Z,1.53
2018-02-14T09:05:47.930Z,1.53
2018-02-14T09:08:18.481Z,1.54
2018-02-14T09:10:48.161Z,1.48
2018-02-14T09:13:17.584Z,1.55
2018-02-14T09:15:46.309Z,1.63
2018-02-14T09:18:15.090Z,1.81
2018-02-14T09:20:43.767Z,1.81
2018-02-14T09:23:12.837Z,1.82
2018-02-14T09:25:41.418Z,1.92
2018-02-14T09:28:11.141Z,1.91
2018-02-14T09:30:39.931Z,2.28
2018-02-14T09:33:08.825Z,2.57
2018-02-14T09:35:38.038Z,2.54
2018-02-14T09:38:07.542Z,2.47
2018-02-14T09:40:36.226Z,3.42
2018-02-14T09:43:07.842Z,4.36
2018-02-14T09:45:37.181Z,6.19
2018-02-14T09:48:06.220Z,7.03
2018-02-14T09:50:35.327Z,7.47
2018-02-14T09:53:04.458Z,7.47
2018-02-14T09:55:37.599Z,5.50
2018-02-14T09:58:06.191Z,5.05
2018-02-14T10:00:36.021Z,3.73
2018-02-14T10:03:05.041Z,3.64
2018-02-14T10:05:33.998Z,3.60
2018-02-14T10:08:03.562Z,3.39
2018-02-14T10:10:32.634Z,3.42
2018-02-14T10:13:01.157Z,3.70
2018-02-14T10:15:30.715Z,3.86
2018-02-14T10:18:01.039Z,3.65
2018-02-14T10:20:30.613Z,3.72
2018-02-14T10:22:59.530Z,3.56
2018-02-14T10:25:27.910Z,3.76
2018-02-14T10:27:57.017Z,3.83
2018-02-14T10:30:26.606Z,3.85
2018-02-14T10:32:55.413Z,3.75
2018-02-14T10:35:24.974Z,4.01
2018-02-14T10:37:54.509Z,3.94
2018-02-14T10:40:24.130Z,3.91
2018-02-14T10:42:52.543Z,4.00
2018-02-14T10:45:22.204Z,4.09
2018-02-14T10:47:52.343Z,4.16
2018-02-14T10:50:21.492Z,4.20
2018-02-14T10:52:50.391Z,4.57
2018-02-14T10:55:19.583Z,4.70
2018-02-14T10:57:48.880Z,4.76
2018-02-14T11:00:23.176Z,4.84
2018-02-14T11:02:58.519Z,4.56
2018-02-14T11:05:34.016Z,4.66
2018-02-14T11:08:03.517Z,4.98
2018-02-14T11:10:33.542Z,5.08
2018-02-14T11:13:02.323Z,5.03
2018-02-14T11:15:31.294Z,4.90
2018-02-14T11:18:00.254Z,5.09
2018-02-14T11:20:29.223Z,4.99
2018-02-14T11:22:59.174Z,5.19
2018-02-14T11:25:29.215Z,5.39
2018-02-14T11:27:58.816Z,5.40
2018-02-14T11:30:29.494Z,5.35
2018-02-14T11:32:58.229Z,5.25
2018-02-14T11:35:27.019Z,5.00
2018-02-14T11:37:56.927Z,5.74
2018-02-14T11:40:25.380Z,6.26
2018-02-14T11:42:54.477Z,5.71
2018-02-14T11:45:23.494Z,5.17
2018-02-14T11:47:52.184Z,4.93
2018-02-14T11:50:20.969Z,5.05
2018-02-14T11:52:49.647Z,5.08
2018-02-14T11:55:18.567Z,5.02
2018-02-14T11:57:47.509Z,4.92
2018-02-14T12:00:16.178Z,4.79
2018-02-14T12:02:45.692Z,4.90
2018-02-14T12:05:15.408Z,5.10
2018-02-14T12:07:43.946Z,5.15
2018-02-14T12:10:12.551Z,5.32
2018-02-14T12:12:42.608Z,5.68
2018-02-14T12:15:12.155Z,6.60
2018-02-14T12:17:41.942Z,7.92
2018-02-14T12:20:11.811Z,9.03
2018-02-14T12:22:42.398Z,9.37
2018-02-14T12:25:11.212Z,9.31
2018-02-14T12:27:39.866Z,8.72
2018-02-14T12:30:09.292Z,8.89
2018-02-14T12:32:38.414Z,9.45
2018-02-14T12:35:07.004Z,8.90
2018-02-14T12:37:36.109Z,8.80
2018-02-14T12:40:05.713Z,8.71
2018-02-14T12:42:34.841Z,7.42
2018-02-14T12:45:04.686Z,7.33
2018-02-14T12:47:34.037Z,7.32
2018-02-14T12:50:03.690Z,7.23
2018-02-14T12:52:33.340Z,6.75
2018-02-14T12:55:01.943Z,6.86
2018-02-14T12:57:31.255Z,6.87
2018-02-14T13:00:00.745Z,7.00
2018-02-14T13:02:30.075Z,7.31
2018-02-14T13:04:58.713Z,7.37
2018-02-14T13:07:27.190Z,7.34
2018-02-14T13:09:56.576Z,7.12
2018-02-14T13:12:25.529Z,7.50
2018-02-14T13:14:54.938Z,7.44
2018-02-14T13:17:24.501Z,8.15
2018-02-14T13:19:53.434Z,8.78
2018-02-14T13:22:23.060Z,9.24
2018-02-14T13:24:54.001Z,10.60
2018-02-14T13:27:23.376Z,11.00
2018-02-14T13:29:54.238Z,11.36
2018-02-14T13:32:23.295Z,11.47
2018-02-14T13:34:52.882Z,11.30
2018-02-14T13:37:21.954Z,11.10
2018-02-14T13:39:50.962Z,10.01
2018-02-14T13:42:19.853Z,9.72
2018-02-14T13:44:49.760Z,9.76
2018-02-14T13:47:18.641Z,10.85
2018-02-14T13:49:49.270Z,10.14
2018-02-14T13:52:18.387Z,9.39
2018-02-14T13:54:47.305Z,8.34
2018-02-14T13:57:17.377Z,8.27
2018-02-14T13:59:46.532Z,7.63
2018-02-14T14:02:16.279Z,7.88
2018-02-14T14:04:46.218Z,7.68
2018-02-14T14:07:15.018Z,7.56
2018-02-14T14:09:43.949Z,7.71
2018-02-14T14:12:12.727Z,8.03
2018-02-14T14:14:41.234Z,8.74
2018-02-14T14:17:10.333Z,8.74
2018-02-14T14:19:39.027Z,8.68
2018-02-14T14:22:08.024Z,8.81
2018-02-14T14:24:37.661Z,8.93
2018-02-14T14:27:06.610Z,9.35
2018-02-14T14:29:36.102Z,8.81
2018-02-14T14:32:05.010Z,8.21
2018-02-14T14:34:33.803Z,7.98
2018-02-14T14:37:02.405Z,7.03
2018-02-14T14:39:31.409Z,6.89
2018-02-14T14:42:01.474Z,6.98
2018-02-14T14:44:31.711Z,6.71
2018-02-14T14:47:00.708Z,7.25
2018-02-14T14:49:29.285Z,7.38
2018-02-14T14:51:58.781Z,7.12
2018-02-14T14:54:27.610Z,7.40
2018-02-14T14:56:56.242Z,7.31
2018-02-14T14:59:24.878Z,7.62
2018-02-14T15:01:53.767Z,7.92
2018-02-14T15:04:23.157Z,8.34
2018-02-14T15:06:52.799Z,8.00
2018-02-14T15:09:21.544Z,8.13
2018-02-14T15:11:50.335Z,8.29
2018-02-14T15:14:19.036Z,7.83
2018-02-14T15:16:47.874Z,7.26
2018-02-14T15:19:17.274Z,6.92
2018-02-14T15:21:46.043Z,6.85
2018-02-14T15:24:14.953Z,6.93
2018-02-14T15:26:44.160Z,6.67
2018-02-14T15:29:12.755Z,6.51
2018-02-14T15:31:41.618Z,6.35
2018-02-14T15:34:10.235Z,6.27
2018-02-14T15:36:39.572Z,6.19
2018-02-14T15:39:08.703Z,6.14
2018-02-14T15:41:37.560Z,5.95
2018-02-14T15:44:06.629Z,5.77
2018-02-14T15:46:35.429Z,5.76
2018-02-14T15:49:05.188Z,5.61
2018-02-14T15:51:35.761Z,5.65
2018-02-14T15:54:05.218Z,5.65
2018-02-14T15:56:33.862Z,5.51
2018-02-14T15:59:02.599Z,5.49
2018-02-14T16:01:31.692Z,5.36
2018-02-14T16:04:00.649Z,5.37
2018-02-14T16:06:30.368Z,5.39
2018-02-14T16:08:58.909Z,5.34
2018-02-14T16:11:28.034Z,5.23
2018-02-14T16:13:56.839Z,5.34
2018-02-14T16:16:25.916Z,5.28
2018-02-14T16:18:54.555Z,5.18
2018-02-14T16:21:23.118Z,5.04
2018-02-14T16:23:52.014Z,5.02
2018-02-14T16:26:21.518Z,4.99
2018-02-14T16:28:50.921Z,5.02
2018-02-14T16:31:19.955Z,4.90
2018-02-14T16:33:48.844Z,4.76
2018-02-14T16:36:17.461Z,4.74
2018-02-14T16:38:45.935Z,4.64
2018-02-14T16:41:14.598Z,4.54
2018-02-14T16:43:43.288Z,4.49
2018-02-14T16:46:12.190Z,4.39
2018-02-14T16:48:41.164Z,4.37
2018-02-14T16:51:10.076Z,4.35
2018-02-14T16:53:39.071Z,4.37
2018-02-14T16:56:07.653Z,4.37
2018-02-14T16:58:36.660Z,4.17
2018-02-14T17:01:05.340Z,4.26
2018-02-14T17:03:33.819Z,4.15
2018-02-14T17:06:02.688Z,4.15
2018-02-14T17:08:31.934Z,4.12
2018-02-14T17:11:02.158Z,4.05
2018-02-14T17:13:31.295Z,4.04
2018-02-14T17:16:00.748Z,4.06
2018-02-14T17:18:29.900Z,3.80
2018-02-14T17:20:59.068Z,3.77
2018-02-14T17:23:28.523Z,3.60
2018-02-14T17:25:58.746Z,3.54
2018-02-14T17:28:29.607Z,3.58
2018-02-14T17:30:58.908Z,3.43
2018-02-14T17:33:28.556Z,3.22
2018-02-14T17:35:57.558Z,3.28
2018-02-14T17:38:26.526Z,3.21
2018-02-14T17:40:55.974Z,3.05
2018-02-14T17:43:25.652Z,2.86
2018-02-14T17:45:54.337Z,3.00
2018-02-14T17:48:24.079Z,2.69
2018-02-14T17:50:52.990Z,2.80
2018-02-14T17:53:22.936Z,2.81
2018-02-14T17:55:51.488Z,2.99
2018-02-14T17:58:20.958Z,2.74
2018-02-14T18:00:49.501Z,2.58
2018-02-14T18:03:18.306Z,2.64
2018-02-14T18:05:47.488Z,2.81
2018-02-14T18:08:16.394Z,2.68
2018-02-14T18:10:46.504Z,2.86
2018-02-14T18:13:16.022Z,2.77
2018-02-14T18:15:45.695Z,2.77
2018-02-14T18:18:15.186Z,2.75
2018-02-14T18:20:45.038Z,2.71
2018-02-14T18:23:14.445Z,2.61
2018-02-14T18:25:44.357Z,2.57
2018-02-14T18:28:14.253Z,2.71
2018-02-14T18:30:43.576Z,2.44
2018-02-14T18:33:12.977Z,2.67
2018-02-14T18:35:41.814Z,2.64
2018-02-14T18:38:10.465Z,2.81
2018-02-14T18:40:40.538Z,2.69
2018-02-14T18:43:09.493Z,2.47
2018-02-14T18:45:38.546Z,2.62
2018-02-14T18:48:07.546Z,2.79
2018-02-14T18:50:36.357Z,2.87
2018-02-14T18:53:06.455Z,3.14
2018-02-14T18:55:35.949Z,3.26
2018-02-14T18:58:05.242Z,3.37
2018-02-14T19:00:33.890Z,3.40
2018-02-14T19:03:03.721Z,3.38
2018-02-14T19:05:32.718Z,3.38
2018-02-14T19:13:00.050Z,3.47
2018-02-14T19:15:32.012Z,3.43
2018-02-14T19:18:00.624Z,3.42
2018-02-14T19:20:29.573Z,3.34
2018-02-14T19:22:58.815Z,3.35
2018-02-14T19:25:28.002Z,3.26
2018-02-14T19:27:56.612Z,3.27
2018-02-14T19:30:25.752Z,3.33
2018-02-14T19:32:54.506Z,3.32
2018-02-14T19:35:24.247Z,3.34
2018-02-14T19:37:52.918Z,3.24
2018-02-14T19:40:21.967Z,3.17
2018-02-14T19:42:50.926Z,3.18
2018-02-14T19:45:19.876Z,3.18
2018-02-14T19:47:50.445Z,3.19
2018-02-14T19:50:19.081Z,3.14
2018-02-14T19:52:49.167Z,3.12
2018-02-14T19:55:18.108Z,3.16
2018-02-14T19:57:46.886Z,3.11
2018-02-14T20:00:15.692Z,3.12
2018-02-14T20:02:44.161Z,3.04
2018-02-14T20:05:13.533Z,2.97
2018-02-14T20:07:42.255Z,2.96
2018-02-14T20:10:10.786Z,2.91
2018-02-14T20:12:39.399Z,2.92
2018-02-14T20:15:09.203Z,2.84
2018-02-14T20:17:39.924Z,2.85
2018-02-14T20:20:08.715Z,2.85
2018-02-14T20:22:38.021Z,2.78
2018-02-14T20:25:06.617Z,2.80
2018-02-14T20:27:36.362Z,2.75
2018-02-14T20:30:05.923Z,2.75
2018-02-14T20:32:35.524Z,2.74
2018-02-14T20:35:05.120Z,2.67
2018-02-14T20:37:34.570Z,2.66
2018-02-14T20:40:03.027Z,2.62
2018-02-14T20:42:32.571Z,2.61
2018-02-14T20:45:02.952Z,2.58
2018-02-14T20:47:32.288Z,2.56
2018-02-14T20:50:01.286Z,2.55
2018-02-14T20:52:30.159Z,2.55
2018-02-14T20:54:58.715Z,2.53
2018-02-14T20:57:27.551Z,2.52
2018-02-14T20:59:57.196Z,2.49
2018-02-14T21:02:26.937Z,2.56
2018-02-14T21:04:55.617Z,2.46
2018-02-14T21:07:24.193Z,2.54
2018-02-14T21:09:53.744Z,2.48
2018-02-14T21:12:22.294Z,2.36
2018-02-14T21:14:50.723Z,2.39
2018-02-14T21:17:20.621Z,2.38
2018-02-14T21:19:49.203Z,2.40
2018-02-14T21:22:17.876Z,2.39
2018-02-14T21:24:47.639Z,2.35
2018-02-14T21:27:18.131Z,2.31
2018-02-14T21:29:46.985Z,2.32
2018-02-14T21:32:15.683Z,2.31
2018-02-14T21:34:44.166Z,2.33
2018-02-14T21:37:12.815Z,2.28
2018-02-14T21:39:42.092Z,2.27
2018-02-14T21:42:10.771Z,2.22
2018-02-14T21:44:40.136Z,2.20
2018-02-14T21:47:08.856Z,2.16
2018-02-14T21:49:37.492Z,2.21
2018-02-14T21:52:07.003Z,2.24
2018-02-14T21:54:36.496Z,2.13
2018-02-14T21:57:05.313Z,2.14
2018-02-14T21:59:35.078Z,2.05
2018-02-14T22:02:04.974Z,2.04
2018-02-14T22:04:35.292Z,2.04
2018-02-14T22:07:04.996Z,2.04
2018-02-14T22:09:33.606Z,1.97
2018-02-14T22:12:02.383Z,2.01
2018-02-14T22:14:31.636Z,2.01
2018-02-14T22:17:00.385Z,2.03
2018-02-14T22:19:29.310Z,2.00
2018-02-14T22:21:57.851Z,2.03
2018-02-14T22:24:26.333Z,1.98
2018-02-14T22:26:54.697Z,1.96
2018-02-14T22:29:24.650Z,1.92
2018-02-14T22:31:53.798Z,1.92
2018-02-14T22:34:23.110Z,1.96
2018-02-14T22:36:51.502Z,1.90
2018-02-14T22:39:20.663Z,1.91
2018-02-14T22:41:49.264Z,1.90
2018-02-14T22:44:18.743Z,1.85
2018-02-14T22:46:47.078Z,1.96
2018-02-14T22:49:15.641Z,1.88
2018-02-14T22:51:45.141Z,1.93
2018-02-14T22:54:14.257Z,1.93
2018-02-14T22:56:42.808Z,1.92
2018-02-14T22:59:12.018Z,1.96
2018-02-14T23:01:42.426Z,1.91
2018-02-14T23:04:11.753Z,1.97
2018-02-14T23:06:40.299Z,1.90
2018-02-14T23:09:08.862Z,1.92
2018-02-14T23:11:37.614Z,1.92
2018-02-14T23:14:06.092Z,1.96
2018-02-14T23:16:34.928Z,1.95
2018-02-14T23:19:03.413Z,1.94
2018-02-14T23:21:32.561Z,1.98
2018-02-14T23:24:00.942Z,1.97
2018-02-14T23:26:30.163Z,1.95
2018-02-14T23:28:59.489Z,1.90
2018-02-14T23:31:28.125Z,1.95
2018-02-14T23:33:58.249Z,1.96
2018-02-14T23:36:28.506Z,1.95
2018-02-14T23:38:57.134Z,1.94
2018-02-14T23:41:25.472Z,1.88
2018-02-14T23:43:54.605Z,1.90
2018-02-14T23:46:23.311Z,1.87
2018-02-14T23:48:51.680Z,1.85
2018-02-14T23:51:20.048Z,1.87
2018-02-14T23:53:48.679Z,1.87
2018-02-14T23:56:17.801Z,1.82
2018-02-14T23:58:46.218Z,1.85
